^^
Saratoga-Weather Station Historical Data
Daily Summary for February 9, 2021 Units:  Metric    English   Both
Daily Weekly Monthly Yearly Custom
  High: Low: Average:
Temperature: 24.9 °C 8.3 °C 13.6 °C
Dew Point: 14.1 °C 7.5 °C 10 °C
Humidity: 97% 46% 82%
Wind Speed: 17.7km/h 0km/h 1.8km/h
Wind Gust: 25.7km/h - -
Wind- - SSE
Pressure: 1008.8 hPa 1004.1 hPa -
Precipitation: 0.0 mm    
Historical Graphs
 
 
Tabular Data for February 9, 2021
Time Temperature Dew Point Pressure Wind Wind Speed Wind Gust Humidity Rainfall Rate (Hourly) solar
01:37 9.7 °C 8.6 °C 1008.8 hPa Calm     93% 0.0 mm 0 W/m2
01:42 9.6 °C 8.5 °C 1008.8 hPa Calm     93% 0.0 mm 0 W/m2
01:47 9.6 °C 8.5 °C 1008.8 hPa Calm     93% 0.0 mm 0 W/m2
01:52 9.4 °C 8.3 °C 1008.8 hPa Calm     93% 0.0 mm 0 W/m2
01:57 9.4 °C 8.3 °C 1008.8 hPa Calm     93% 0.0 mm 0 W/m2
02:02 9.4 °C 8.3 °C 1008.5 hPa East 3.2 km/h 3.2 km/h 93% 0.0 mm 0 W/m2
02:07 9.3 °C 8.2 °C 1008.5 hPa Calm     93% 0.0 mm 0 W/m2
02:12 9.4 °C 8.5 °C 1008.8 hPa ESE 3.2 km/h 4.8 km/h 94% 0.0 mm 0 W/m2
02:17 9.7 °C 8.9 °C 1008.5 hPa Calm     95% 0.0 mm 0 W/m2
02:22 9.8 °C 9 °C 1008.5 hPa Calm   4.8 km/h 95% 0.0 mm 0 W/m2
02:27 9.9 °C 9 °C 1008.5 hPa Calm     94% 0.0 mm 0 W/m2
02:32 9.9 °C 9 °C 1008.5 hPa Calm     94% 0.0 mm 0 W/m2
02:37 9.8 °C 8.9 °C 1008.5 hPa Calm     94% 0.0 mm 0 W/m2
02:42 9.7 °C 8.8 °C 1008.5 hPa Calm     94% 0.0 mm 0 W/m2
02:47 9.7 °C 8.8 °C 1008.5 hPa Calm     94% 0.0 mm 0 W/m2
02:52 9.6 °C 8.7 °C 1008.5 hPa Calm     94% 0.0 mm 0 W/m2
02:57 9.4 °C 8.5 °C 1008.5 hPa Calm     94% 0.0 mm 0 W/m2
03:02 9.3 °C 8.4 °C 1008.1 hPa Calm     94% 0.0 mm 0 W/m2
03:07 9.3 °C 8.4 °C 1008.1 hPa Calm     94% 0.0 mm 0 W/m2
03:12 9.2 °C 8.3 °C 1008.1 hPa Calm     94% 0.0 mm 0 W/m2
03:17 9.2 °C 8.3 °C 1008.1 hPa Calm     94% 0.0 mm 0 W/m2
03:22 9.2 °C 8.3 °C 1008.1 hPa Calm     94% 0.0 mm 0 W/m2
03:27 9.1 °C 8.2 °C 1008.1 hPa Calm     94% 0.0 mm 0 W/m2
03:32 9.1 °C 8.2 °C 1007.8 hPa Calm     94% 0.0 mm 0 W/m2
03:37 9 °C 8.1 °C 1007.8 hPa Calm     94% 0.0 mm 0 W/m2
03:42 8.9 °C 8 °C 1007.8 hPa Calm     94% 0.0 mm 0 W/m2
03:47 8.9 °C 8.1 °C 1007.8 hPa Calm     95% 0.0 mm 0 W/m2
03:52 8.9 °C 8.1 °C 1007.8 hPa Calm     95% 0.0 mm 0 W/m2
03:57 8.9 °C 8.1 °C 1007.8 hPa Calm     95% 0.0 mm 0 W/m2
04:02 8.8 °C 7.9 °C 1007.5 hPa Calm     94% 0.0 mm 0 W/m2
04:07 8.8 °C 8 °C 1007.5 hPa Calm     95% 0.0 mm 0 W/m2
04:12 8.8 °C 8 °C 1007.5 hPa Calm     95% 0.0 mm 0 W/m2
04:17 8.8 °C 8 °C 1007.5 hPa Calm     95% 0.0 mm 0 W/m2
04:22 8.7 °C 7.9 °C 1007.5 hPa Calm     95% 0.0 mm 0 W/m2
04:27 8.7 °C 7.9 °C 1007.5 hPa Calm     95% 0.0 mm 0 W/m2
04:32 8.6 °C 7.8 °C 1007.5 hPa Calm     95% 0.0 mm 0 W/m2
04:37 8.6 °C 7.8 °C 1007.5 hPa Calm     95% 0.0 mm 0 W/m2
04:42 8.5 °C 7.7 °C 1007.1 hPa Calm     95% 0.0 mm 0 W/m2
04:47 8.4 °C 7.6 °C 1007.1 hPa Calm     95% 0.0 mm 0 W/m2
04:52 8.4 °C 7.6 °C 1007.1 hPa Calm     95% 0.0 mm 0 W/m2
04:57 8.3 °C 7.5 °C 1007.1 hPa Calm     95% 0.0 mm 0 W/m2
05:02 8.3 °C 7.5 °C 1007.1 hPa Calm     95% 0.0 mm 0 W/m2
05:07 8.3 °C 7.5 °C 1007.1 hPa Calm     95% 0.0 mm 0 W/m2
05:12 8.3 °C 7.5 °C 1007.1 hPa Calm     95% 0.0 mm 0 W/m2
05:17 8.3 °C 7.5 °C 1007.1 hPa Calm     95% 0.0 mm 0 W/m2
05:22 8.3 °C 7.5 °C 1007.1 hPa Calm     95% 0.0 mm 0 W/m2
05:27 8.3 °C 7.5 °C 1006.8 hPa Calm     95% 0.0 mm 0 W/m2
05:32 8.4 °C 7.6 °C 1006.8 hPa Calm     95% 0.0 mm 0 W/m2
05:37 8.4 °C 7.6 °C 1006.8 hPa Calm     95% 0.0 mm 0 W/m2
05:42 8.4 °C 7.8 °C 1007.1 hPa Calm     96% 0.0 mm 0 W/m2
05:47 8.4 °C 7.6 °C 1007.1 hPa Calm     95% 0.0 mm 0 W/m2
05:52 8.4 °C 7.6 °C 1006.8 hPa Calm     95% 0.0 mm 0 W/m2
05:57 8.4 °C 7.6 °C 1006.8 hPa Calm     95% 0.0 mm 0 W/m2
06:02 8.4 °C 7.6 °C 1006.8 hPa Calm     95% 0.0 mm 0 W/m2
06:07 8.3 °C 7.5 °C 1006.8 hPa Calm     95% 0.0 mm 0 W/m2
06:12 8.3 °C 7.5 °C 1006.8 hPa Calm     95% 0.0 mm 5 W/m2
06:17 8.3 °C 7.7 °C 1006.8 hPa Calm     96% 0.0 mm 5 W/m2
06:22 8.4 °C 7.8 °C 1006.8 hPa Calm     96% 0.0 mm 7 W/m2
06:27 8.3 °C 7.5 °C 1006.8 hPa Calm     95% 0.0 mm 9 W/m2
06:32 8.3 °C 7.5 °C 1006.8 hPa Calm     95% 0.0 mm 12 W/m2
06:37 8.3 °C 7.7 °C 1006.8 hPa Calm     96% 0.0 mm 16 W/m2
06:42 8.4 °C 7.8 °C 1006.8 hPa Calm     96% 0.0 mm 19 W/m2
06:47 8.4 °C 7.8 °C 1006.8 hPa Calm     96% 0.0 mm 23 W/m2
06:52 8.4 °C 7.8 °C 1006.8 hPa Calm     96% 0.0 mm 26 W/m2
06:57 8.6 °C 8 °C 1006.8 hPa Calm     96% 0.0 mm 28 W/m2
07:02 8.7 °C 8.1 °C 1006.8 hPa Calm     96% 0.0 mm 32 W/m2
07:07 8.9 °C 8.3 °C 1006.8 hPa ESE 3.2 km/h 3.2 km/h 96% 0.0 mm 33 W/m2
07:12 9.2 °C 8.6 °C 1006.8 hPa ESE 1.4 km/h 3.2 km/h 96% 0.0 mm 39 W/m2
07:17 9.3 °C 8.7 °C 1006.8 hPa Calm     96% 0.0 mm 40 W/m2
07:22 9.4 °C 8.8 °C 1006.8 hPa Calm   3.2 km/h 96% 0.0 mm 42 W/m2
07:27 9.4 °C 8.8 °C 1006.4 hPa Calm     96% 0.0 mm 44 W/m2
07:32 9.5 °C 8.9 °C 1006.4 hPa Calm     96% 0.0 mm 42 W/m2
07:37 9.7 °C 9.1 °C 1006.4 hPa Calm     96% 0.0 mm 44 W/m2
07:42 9.8 °C 9.2 °C 1006.4 hPa Calm     96% 0.0 mm 56 W/m2
07:47 9.9 °C 9.3 °C 1006.4 hPa Calm     96% 0.0 mm 53 W/m2
07:52 10.1 °C 9.6 °C 1006.4 hPa Calm   3.2 km/h 97% 0.0 mm 58 W/m2
07:57 10.3 °C 9.7 °C 1006.4 hPa Calm     96% 0.0 mm 62 W/m2
08:02 10.7 °C 10.2 °C 1006.4 hPa Calm   3.2 km/h 97% 0.0 mm 62 W/m2
08:07 10.9 °C 10.4 °C 1006.4 hPa Calm   1.6 km/h 97% 0.0 mm 56 W/m2
08:12 11.2 °C 10.6 °C 1006.1 hPa Calm   1.6 km/h 96% 0.0 mm 56 W/m2
08:17 11.8 °C 11 °C 1006.4 hPa NE 1.4 km/h 3.2 km/h 95% 0.0 mm 54 W/m2
08:22 12.3 °C 11.2 °C 1006.4 hPa NE 1.4 km/h 3.2 km/h 93% 0.0 mm 60 W/m2
08:27 12.9 °C 11.5 °C 1006.1 hPa Calm   3.2 km/h 91% 0.0 mm 63 W/m2
08:32 13.3 °C 11.4 °C 1006.1 hPa ENE 3.2 km/h 3.2 km/h 88% 0.0 mm 74 W/m2
08:37 13.8 °C 11.5 °C 1006.1 hPa Calm   3.2 km/h 86% 0.0 mm 97 W/m2
08:42 14.3 °C 11.6 °C 1006.1 hPa NE 1.4 km/h 4.8 km/h 84% 0.0 mm 188 W/m2
08:47 14.7 °C 11.5 °C 1006.1 hPa NE 1.4 km/h 3.2 km/h 81% 0.0 mm 264 W/m2
08:52 14.8 °C 11.4 °C 1005.8 hPa ENE 3.2 km/h 3.2 km/h 80% 0.0 mm 158 W/m2
08:57 14.9 °C 11.5 °C 1005.8 hPa ENE 1.4 km/h 3.2 km/h 80% 0.0 mm 227 W/m2
09:02 15.1 °C 11.5 °C 1005.8 hPa ENE 4.7 km/h 4.8 km/h 79% 0.0 mm 297 W/m2
09:07 15.2 °C 11.6 °C 1005.8 hPa Calm   4.8 km/h 79% 0.0 mm 216 W/m2
09:12 15.3 °C 11.7 °C 1005.8 hPa ENE 1.4 km/h 4.8 km/h 79% 0.0 mm 239 W/m2
09:17 15.4 °C 11.8 °C 1005.8 hPa Calm   3.2 km/h 79% 0.0 mm 309 W/m2
09:22 15.6 °C 12 °C 1005.8 hPa Calm   4.8 km/h 79% 0.0 mm 452 W/m2
09:27 15.8 °C 12 °C 1005.8 hPa Calm   3.2 km/h 78% 0.0 mm 411 W/m2
09:32 16 °C 12.2 °C 1005.8 hPa North 1.4 km/h 1.6 km/h 78% 0.0 mm 466 W/m2
09:37 16.2 °C 12.2 °C 1005.8 hPa West 3.2 km/h 4.8 km/h 77% 0.0 mm 397 W/m2
09:42 16.3 °C 12.3 °C 1005.8 hPa NW 1.4 km/h 4.8 km/h 77% 0.0 mm 91 W/m2
09:47 16.6 °C 12.1 °C 1005.4 hPa Calm   3.2 km/h 75% 0.0 mm 139 W/m2
09:52 16.8 °C 12.5 °C 1005.4 hPa NNW 1.4 km/h 4.8 km/h 76% 0.0 mm 512 W/m2
09:57 17.2 °C 12.7 °C 1005.4 hPa NE 1.4 km/h 3.2 km/h 75% 0.0 mm 534 W/m2
10:02 17.7 °C 13 °C 1005.1 hPa ESE 1.4 km/h 3.2 km/h 74% 0.0 mm 533 W/m2
10:07 18.2 °C 13.1 °C 1005.1 hPa ENE 4.7 km/h 4.8 km/h 72% 0.0 mm 608 W/m2
10:12 18.6 °C 13.5 °C 1005.1 hPa Calm   3.2 km/h 72% 0.0 mm 606 W/m2
10:17 19.1 °C 13.9 °C 1005.1 hPa WNW 3.2 km/h 6.4 km/h 72% 0.0 mm 629 W/m2
10:22 19.7 °C 14.1 °C 1005.1 hPa NW 6.4 km/h 6.4 km/h 70% 0.0 mm 657 W/m2
10:27 20.3 °C 14 °C 1004.7 hPa WSW 1.4 km/h 3.2 km/h 67% 0.0 mm 524 W/m2
10:32 20.9 °C 13.8 °C 1004.7 hPa NE 1.4 km/h 6.4 km/h 64% 0.0 mm 468 W/m2
10:37 21.4 °C 13.1 °C 1004.7 hPa ENE 6.4 km/h 9.7 km/h 59% 0.0 mm 322 W/m2
10:42 21.8 °C 12.6 °C 1004.4 hPa East 17.7 km/h 17.7 km/h 56% 0.0 mm 619 W/m2
10:47 22.1 °C 12.9 °C 1004.4 hPa NNE 3.2 km/h 3.2 km/h 56% 0.0 mm 657 W/m2
10:52 22.6 °C 13.1 °C 1004.1 hPa NE 1.4 km/h 12.9 km/h 55% 0.0 mm 754 W/m2
10:57 22.8 °C 12.7 °C 1004.1 hPa East 3.2 km/h 8 km/h 53% 0.0 mm 635 W/m2
11:02 23 °C 12.6 °C 1004.1 hPa East 4.7 km/h 6.4 km/h 52% 0.0 mm 650 W/m2
11:07 23.2 °C 12.8 °C 1004.1 hPa ESE 9.7 km/h 17.7 km/h 52% 0.0 mm 740 W/m2
11:12 23.4 °C 13.3 °C 1004.1 hPa East 7.9 km/h 8 km/h 53% 0.0 mm 418 W/m2
11:17 23.6 °C 13.2 °C 1004.1 hPa ENE 9.7 km/h 12.9 km/h 52% 0.0 mm 775 W/m2
11:22 23.7 °C 13 °C 1004.4 hPa ENE 7.9 km/h 8 km/h 51% 0.0 mm 710 W/m2
11:27 23.9 °C 13.1 °C 1004.1 hPa SSW 3.2 km/h 11.3 km/h 51% 0.0 mm 733 W/m2
11:32 24 °C 13.2 °C 1004.1 hPa North 7.9 km/h 12.9 km/h 51% 0.0 mm 784 W/m2
11:37 24.2 °C 13.1 °C 1004.1 hPa ESE 3.2 km/h 8 km/h 50% 0.0 mm 802 W/m2
11:42 24.4 °C 13 °C 1004.1 hPa ENE 9.7 km/h 9.7 km/h 49% 0.0 mm 756 W/m2
11:47 24.6 °C 13.2 °C 1004.4 hPa ENE 6.4 km/h 14.5 km/h 49% 0.0 mm 744 W/m2
11:52 24.6 °C 12.5 °C 1004.4 hPa South 6.4 km/h 12.9 km/h 47% 0.0 mm 721 W/m2
11:57 24.5 °C 12.8 °C 1004.1 hPa NE 4.7 km/h 9.7 km/h 48% 0.0 mm 701 W/m2
12:02 24.6 °C 12.5 °C 1004.1 hPa NNW 14.3 km/h 16.1 km/h 47% 0.0 mm 914 W/m2
12:07 24.4 °C 12.4 °C 1004.4 hPa NW 1.4 km/h 17.7 km/h 47% 0.0 mm 529 W/m2
12:12 24.3 °C 11.9 °C 1004.4 hPa NNW 7.9 km/h 14.5 km/h 46% 0.0 mm 552 W/m2
12:17 24.2 °C 12.2 °C 1004.1 hPa NE 7.9 km/h 14.5 km/h 47% 0.0 mm 670 W/m2
12:22 24.1 °C 12.4 °C 1004.4 hPa NW 7.9 km/h 9.7 km/h 48% 0.0 mm 621 W/m2
12:27 24.2 °C 12.5 °C 1004.7 hPa WNW 14.3 km/h 19.3 km/h 48% 0.0 mm 403 W/m2
12:32 24 °C 12.3 °C 1004.1 hPa NNW 1.4 km/h 16.1 km/h 48% 0.0 mm 346 W/m2
12:37 23.9 °C 12.5 °C 1004.4 hPa North 4.7 km/h 25.7 km/h 49% 0.0 mm 418 W/m2
12:42 23.9 °C 12.2 °C 1004.4 hPa ENE 4.7 km/h 8 km/h 48% 0.0 mm 591 W/m2
12:47 24.2 °C 12.5 °C 1004.1 hPa WNW 4.7 km/h 11.3 km/h 48% 0.0 mm 896 W/m2
12:52 24.4 °C 13.6 °C 1004.1 hPa NW 3.2 km/h 6.4 km/h 51% 0.0 mm 905 W/m2
13:02 24.9 °C 12.8 °C 1004.1 hPa NW 4.7 km/h 12.9 km/h 47% 0.0 mm 786 W/m2
Juneau County Weather
Compliments of Weather Underground - 4 mb